createdAt,value
2023-04-21T00:00:14.662Z,17.52
2023-04-21T00:02:42.174Z,15.50
2023-04-21T00:05:10.907Z,14.63
2023-04-21T00:07:39.441Z,15.60
2023-04-21T00:10:08.653Z,17.70
2023-04-21T00:12:36.145Z,14.25
2023-04-21T00:15:04.559Z,15.73
2023-04-21T00:17:31.796Z,18.00
2023-04-21T00:19:59.722Z,17.67
2023-04-21T00:22:27.010Z,18.03
2023-04-21T00:24:54.221Z,15.00
2023-04-21T00:27:21.617Z,17.77
2023-04-21T00:29:48.868Z,18.93
2023-04-21T00:32:16.230Z,17.07
2023-04-21T00:34:43.481Z,17.48
2023-04-21T00:37:12.563Z,16.93
2023-04-21T00:39:40.219Z,16.47
2023-04-21T00:42:07.666Z,16.13
2023-04-21T00:44:36.316Z,16.57
2023-04-21T00:47:04.743Z,18.73
2023-04-21T00:49:32.448Z,17.27
2023-04-21T00:51:59.842Z,20.73
2023-04-21T00:54:27.853Z,16.37
2023-04-21T00:56:55.547Z,18.70
2023-04-21T00:59:22.862Z,17.30
2023-04-21T01:01:52.783Z,18.40
2023-04-21T01:04:21.838Z,17.47
2023-04-21T01:06:49.535Z,20.03
2023-04-21T01:09:17.682Z,16.90
2023-04-21T01:12:05.279Z,16.38
2023-04-21T01:14:36.204Z,16.00
2023-04-21T01:17:07.844Z,19.17
2023-04-21T01:19:42.869Z,18.77
2023-04-21T01:22:11.787Z,17.43
2023-04-21T01:24:41.470Z,22.90
2023-04-21T01:27:21.227Z,21.20
2023-04-21T01:29:51.777Z,20.30
2023-04-21T01:32:22.931Z,19.60
2023-04-21T01:34:53.828Z,19.10
2023-04-21T01:37:24.086Z,17.70
2023-04-21T01:39:55.017Z,18.57
2023-04-21T01:42:24.799Z,19.27
2023-04-21T01:44:53.838Z,20.63
2023-04-21T01:47:22.017Z,19.93
2023-04-21T01:49:49.380Z,21.10
2023-04-21T01:52:16.823Z,19.40
2023-04-21T01:54:44.228Z,18.27
2023-04-21T01:57:11.909Z,19.57
2023-04-21T01:59:40.501Z,20.03
2023-04-21T02:02:08.024Z,22.23
2023-04-21T02:04:36.176Z,19.00
2023-04-21T02:07:03.555Z,20.17
2023-04-21T02:09:31.618Z,18.87
2023-04-21T02:11:59.073Z,18.27
2023-04-21T02:14:26.865Z,18.50
2023-04-21T02:16:56.079Z,22.47
2023-04-21T02:19:24.289Z,20.53
2023-04-21T02:21:51.657Z,19.17
2023-04-21T02:24:22.460Z,23.83
2023-04-21T02:26:49.769Z,19.90
2023-04-21T02:29:17.148Z,19.37
2023-04-21T02:31:57.873Z,18.47
2023-04-21T02:34:28.511Z,22.30
2023-04-21T02:36:55.899Z,19.33
2023-04-21T02:39:23.208Z,21.90
2023-04-21T02:41:50.497Z,20.27
2023-04-21T02:44:17.915Z,22.10
2023-04-21T02:46:45.769Z,22.50
2023-04-21T02:49:13.576Z,20.63
2023-04-21T02:51:40.999Z,21.23
2023-04-21T02:54:08.340Z,25.20
2023-04-21T02:56:35.816Z,21.70
2023-04-21T02:59:03.034Z,24.27
2023-04-21T03:01:30.333Z,23.23
2023-04-21T03:03:57.689Z,24.60
2023-04-21T03:06:25.275Z,22.10
2023-04-21T03:08:52.469Z,21.50
2023-04-21T03:11:19.722Z,27.10
2023-04-21T03:13:47.050Z,23.47
2023-04-21T03:16:14.439Z,22.60
2023-04-21T03:18:44.601Z,25.63
2023-04-21T03:21:13.242Z,24.43
2023-04-21T03:23:40.527Z,25.07
2023-04-21T03:26:08.628Z,25.57
2023-04-21T03:28:36.040Z,23.47
2023-04-21T03:31:03.643Z,28.23
2023-04-21T03:33:30.905Z,23.97
2023-04-21T03:35:58.987Z,23.60
2023-04-21T03:38:30.412Z,25.63
2023-04-21T03:40:57.684Z,24.00
2023-04-21T03:43:24.933Z,26.53
2023-04-21T03:45:52.364Z,23.07
2023-04-21T03:48:19.745Z,22.27
2023-04-21T03:50:47.050Z,27.83
2023-04-21T03:53:14.407Z,26.00
2023-04-21T03:55:41.853Z,26.60
2023-04-21T03:58:09.109Z,25.30
2023-04-21T04:00:36.490Z,27.23
2023-04-21T04:03:03.958Z,23.93
2023-04-21T04:05:31.546Z,27.17
2023-04-21T04:07:59.017Z,23.83
2023-04-21T04:10:26.316Z,27.63
2023-04-21T04:12:55.149Z,26.60
2023-04-21T04:15:22.521Z,27.60
2023-04-21T04:17:49.814Z,25.37
2023-04-21T04:20:17.162Z,24.90
2023-04-21T04:22:44.476Z,24.20
2023-04-21T04:25:12.875Z,28.40
2023-04-21T04:27:40.470Z,27.67
2023-04-21T04:30:08.652Z,26.03
2023-04-21T04:32:38.093Z,27.43
2023-04-21T04:35:06.548Z,27.33
2023-04-21T04:37:36.847Z,25.70
2023-04-21T04:40:06.315Z,26.57
2023-04-21T04:42:34.698Z,26.70
2023-04-21T04:45:02.651Z,27.07
2023-04-21T04:47:30.039Z,25.80
2023-04-21T04:49:57.221Z,24.90
2023-04-21T04:52:26.334Z,27.10
2023-04-21T04:54:53.639Z,26.17
2023-04-21T04:57:20.876Z,23.97
2023-04-21T04:59:48.101Z,26.20
2023-04-21T05:02:41.256Z,23.20
2023-04-21T05:05:09.054Z,23.43
2023-04-21T05:07:36.725Z,28.87
2023-04-21T05:10:04.682Z,25.40
2023-04-21T05:12:34.683Z,30.93
2023-04-21T05:15:02.364Z,29.50
2023-04-21T05:17:31.109Z,27.17
2023-04-21T05:19:58.612Z,25.60
2023-04-21T05:22:26.302Z,29.73
2023-04-21T05:24:53.923Z,25.90
2023-04-21T05:27:21.332Z,29.27
2023-04-21T05:29:48.926Z,23.33
2023-04-21T05:32:16.410Z,25.33
2023-04-21T05:34:43.825Z,28.23
2023-04-21T05:37:14.866Z,26.80
2023-04-21T05:39:42.274Z,26.43
2023-04-21T05:42:12.746Z,23.27
2023-04-21T05:44:40.159Z,22.37
2023-04-21T05:47:08.010Z,24.87
2023-04-21T05:49:35.423Z,24.13
2023-04-21T05:52:02.838Z,27.03
2023-04-21T05:54:30.108Z,25.90
2023-04-21T05:56:57.383Z,24.17
2023-04-21T05:59:26.352Z,25.47
2023-04-21T06:01:53.600Z,25.17
2023-04-21T06:04:21.247Z,21.47
2023-04-21T06:06:48.862Z,25.50
2023-04-21T06:09:16.139Z,25.67
2023-04-21T06:11:43.381Z,24.60
2023-04-21T06:14:10.830Z,25.97
2023-04-21T06:16:38.273Z,28.00
2023-04-21T06:19:05.780Z,28.33
2023-04-21T06:21:33.237Z,25.03
2023-04-21T06:24:00.629Z,25.20
2023-04-21T06:26:27.890Z,28.20
2023-04-21T06:28:55.142Z,24.02
2023-04-21T06:31:22.504Z,26.63
2023-04-21T06:33:49.832Z,22.07
2023-04-21T06:36:18.155Z,21.60
2023-04-21T06:38:45.929Z,22.33
2023-04-21T06:41:13.299Z,24.57
2023-04-21T06:43:41.000Z,22.55
2023-04-21T06:46:08.604Z,23.77
2023-04-21T06:48:35.928Z,24.80
2023-04-21T06:51:03.276Z,21.33
2023-04-21T06:53:30.681Z,24.13
2023-04-21T06:55:57.999Z,23.70
2023-04-21T06:58:25.471Z,22.10
2023-04-21T07:00:52.800Z,20.37
2023-04-21T07:03:20.187Z,22.93
2023-04-21T07:05:47.772Z,21.33
2023-04-21T07:08:15.077Z,20.80
2023-04-21T07:10:42.410Z,23.17
2023-04-21T07:13:10.234Z,25.57
2023-04-21T07:15:37.671Z,24.20
2023-04-21T07:18:04.978Z,21.02
2023-04-21T07:20:32.336Z,21.90
2023-04-21T07:22:59.617Z,23.98
2023-04-21T07:25:26.952Z,26.80
2023-04-21T07:27:54.279Z,21.63
2023-04-21T07:30:21.806Z,26.47
2023-04-21T07:32:49.303Z,28.50
2023-04-21T07:35:17.025Z,23.23
2023-04-21T07:37:44.619Z,20.15
2023-04-21T07:40:12.302Z,19.75
2023-04-21T07:42:39.783Z,19.57
2023-04-21T07:45:07.628Z,20.88
2023-04-21T07:47:35.391Z,19.75
2023-04-21T07:50:02.777Z,21.27
2023-04-21T07:52:30.392Z,22.93
2023-04-21T07:54:57.699Z,22.13
2023-04-21T07:57:25.240Z,22.58
2023-04-21T07:59:52.659Z,23.92
2023-04-21T08:02:20.047Z,21.73
2023-04-21T08:04:47.460Z,21.90
2023-04-21T08:07:15.817Z,23.38
2023-04-21T08:09:43.362Z,20.80
2023-04-21T08:12:10.619Z,23.70
2023-04-21T08:14:38.001Z,20.48
2023-04-21T08:17:05.400Z,20.88
2023-04-21T08:19:32.832Z,22.10
2023-04-21T08:22:00.789Z,20.45
2023-04-21T08:24:28.293Z,21.52
2023-04-21T08:26:55.964Z,20.67
2023-04-21T08:29:23.710Z,20.23
2023-04-21T08:31:51.142Z,21.70
2023-04-21T08:34:21.001Z,20.83
2023-04-21T08:36:49.435Z,17.42
2023-04-21T08:39:17.030Z,21.20
2023-04-21T08:41:44.458Z,20.90
2023-04-21T08:44:11.938Z,24.05
2023-04-21T08:46:40.256Z,24.23
2023-04-21T08:49:10.001Z,22.63
2023-04-21T08:51:37.481Z,22.00
2023-04-21T08:54:05.422Z,21.75
2023-04-21T08:56:32.702Z,21.80
2023-04-21T08:59:00.116Z,21.30
2023-04-21T09:01:27.555Z,23.75
2023-04-21T09:04:14.850Z,22.77
2023-04-21T09:06:46.344Z,22.35
2023-04-21T09:09:13.848Z,22.05
2023-04-21T09:11:41.277Z,30.02
2023-04-21T09:14:09.816Z,18.05
2023-04-21T09:16:37.134Z,20.40
2023-04-21T09:19:15.350Z,18.55
2023-04-21T09:21:44.454Z,22.63
2023-04-21T09:24:13.144Z,20.55
2023-04-21T09:26:42.860Z,17.80
2023-04-21T09:29:10.400Z,21.45
2023-04-21T09:31:38.014Z,19.73
2023-04-21T09:34:26.498Z,20.92
2023-04-21T09:37:01.718Z,19.20
2023-04-21T09:39:43.149Z,23.23
2023-04-21T09:42:18.797Z,16.88
2023-04-21T09:44:52.493Z,21.40
2023-04-21T09:47:30.753Z,22.48
2023-04-21T09:49:59.123Z,16.80
2023-04-21T09:52:30.112Z,21.58
2023-04-21T09:55:04.316Z,18.50
2023-04-21T09:57:32.877Z,22.48
2023-04-21T10:00:12.131Z,16.13
2023-04-21T10:02:49.930Z,17.02
2023-04-21T10:05:17.822Z,19.75
2023-04-21T10:07:46.368Z,18.63
2023-04-21T10:10:21.306Z,16.67
2023-04-21T10:12:49.220Z,17.17
2023-04-21T10:15:30.754Z,18.73
2023-04-21T10:18:25.413Z,16.33
2023-04-21T10:21:02.107Z,15.95
2023-04-21T10:23:30.970Z,15.55
2023-04-21T10:26:07.088Z,17.90
2023-04-21T10:28:44.963Z,22.65
2023-04-21T10:31:29.894Z,18.25
2023-04-21T10:34:17.309Z,26.10
2023-04-21T10:36:56.602Z,19.45
2023-04-21T10:39:27.069Z,15.38
2023-04-21T10:42:12.959Z,14.50
2023-04-21T10:44:44.307Z,16.20
2023-04-21T10:47:11.864Z,17.60
2023-04-21T10:49:40.887Z,12.80
2023-04-21T10:52:09.912Z,13.65
2023-04-21T10:55:00.450Z,13.45
2023-04-21T10:57:32.700Z,13.88
2023-04-21T11:00:00.793Z,13.18
2023-04-21T11:02:28.308Z,12.95
2023-04-21T11:04:56.299Z,13.52
2023-04-21T11:07:24.407Z,12.63
2023-04-21T11:10:06.625Z,11.90
2023-04-21T11:12:39.552Z,11.88
2023-04-21T11:15:09.688Z,17.17
2023-04-21T11:17:43.220Z,13.27
2023-04-21T11:20:10.857Z,14.50
2023-04-21T11:22:38.776Z,12.45
2023-04-21T11:25:16.404Z,13.02
2023-04-21T11:27:56.839Z,13.02
2023-04-21T11:30:34.859Z,11.55
2023-04-21T11:33:02.728Z,12.57
2023-04-21T11:35:31.776Z,13.85
2023-04-21T11:38:04.181Z,12.98
2023-04-21T11:40:47.932Z,12.57
2023-04-21T11:43:15.669Z,12.05
2023-04-21T11:45:43.104Z,14.00
2023-04-21T11:48:17.505Z,10.02
2023-04-21T11:50:49.619Z,7.18
2023-04-21T11:53:17.285Z,9.13
2023-04-21T11:55:46.598Z,7.90
2023-04-21T11:58:16.464Z,11.35
2023-04-21T12:00:47.275Z,8.45
2023-04-21T12:03:15.069Z,10.00
2023-04-21T12:05:42.834Z,10.63
2023-04-21T12:08:16.722Z,9.43
2023-04-21T12:10:48.636Z,9.18
2023-04-21T12:13:27.399Z,7.22
2023-04-21T12:15:54.920Z,13.65
2023-04-21T12:18:26.976Z,9.65
2023-04-21T12:20:55.426Z,8.23
2023-04-21T12:23:22.845Z,8.57
2023-04-21T12:25:51.297Z,9.23
2023-04-21T12:28:18.720Z,8.15
2023-04-21T12:30:48.440Z,10.45
2023-04-21T12:33:16.002Z,11.93
2023-04-21T12:35:43.486Z,9.75
2023-04-21T12:38:11.094Z,8.27
2023-04-21T12:40:38.610Z,11.60
2023-04-21T12:43:05.858Z,11.30
2023-04-21T12:45:33.217Z,10.20
2023-04-21T12:48:00.939Z,10.05
2023-04-21T12:50:29.629Z,13.75
2023-04-21T12:52:56.952Z,10.02
2023-04-21T12:55:24.343Z,11.52
2023-04-21T12:57:52.763Z,12.75
2023-04-21T13:00:20.575Z,9.45
2023-04-21T13:02:47.931Z,10.90
2023-04-21T13:05:15.285Z,10.65
2023-04-21T13:07:42.669Z,10.88
2023-04-21T13:10:10.386Z,10.63
2023-04-21T13:12:37.996Z,10.40
2023-04-21T13:15:06.031Z,9.77
2023-04-21T13:17:33.392Z,8.77
2023-04-21T13:20:00.787Z,10.60
2023-04-21T13:22:28.241Z,11.15
2023-04-21T13:24:55.536Z,10.57
2023-04-21T13:27:22.805Z,9.73
2023-04-21T13:29:50.464Z,12.90
2023-04-21T13:32:17.935Z,9.15
2023-04-21T13:34:45.252Z,8.80
2023-04-21T13:37:16.100Z,10.07
2023-04-21T13:39:43.643Z,10.75
2023-04-21T13:42:11.347Z,8.82
2023-04-21T13:44:38.640Z,10.00
2023-04-21T13:47:08.758Z,8.43
2023-04-21T13:49:36.616Z,9.90
2023-04-21T13:52:04.285Z,7.60
2023-04-21T13:54:31.829Z,8.30
2023-04-21T13:56:59.340Z,7.32
2023-04-21T13:59:26.788Z,8.93
2023-04-21T14:01:54.046Z,8.10
2023-04-21T14:04:22.130Z,13.57
2023-04-21T14:06:51.153Z,10.57
2023-04-21T14:09:18.896Z,8.80
2023-04-21T14:11:46.352Z,7.03
2023-04-21T14:16:41.403Z,7.60
2023-04-21T14:19:10.225Z,7.53
2023-04-21T14:21:37.728Z,7.55
2023-04-21T14:24:05.166Z,7.75
2023-04-21T14:26:32.850Z,6.93
2023-04-21T14:29:01.452Z,7.25
2023-04-21T14:31:29.264Z,6.60
2023-04-21T14:33:56.663Z,5.50
2023-04-21T14:36:24.029Z,5.60
2023-04-21T14:38:51.295Z,6.15
2023-04-21T14:41:18.782Z,5.50
2023-04-21T14:43:47.714Z,4.47
2023-04-21T14:46:16.920Z,5.18
2023-04-21T14:48:44.694Z,7.28
2023-04-21T14:51:12.018Z,6.25
2023-04-21T14:53:40.620Z,4.65
2023-04-21T14:56:08.176Z,3.95
2023-04-21T14:58:38.057Z,7.68
2023-04-21T15:01:05.568Z,5.40
2023-04-21T15:03:32.943Z,4.40
2023-04-21T15:06:00.383Z,4.70
2023-04-21T15:08:27.732Z,4.43
2023-04-21T15:10:55.041Z,4.90
2023-04-21T15:13:22.807Z,5.32
2023-04-21T15:15:52.162Z,3.53
2023-04-21T15:18:20.925Z,3.85
2023-04-21T15:20:48.615Z,4.25
2023-04-21T15:23:16.163Z,5.00
2023-04-21T15:25:43.495Z,3.83
2023-04-21T15:28:11.181Z,4.93
2023-04-21T15:30:38.518Z,4.28
2023-04-21T15:33:06.013Z,3.53
2023-04-21T15:35:33.444Z,6.22
2023-04-21T15:38:00.806Z,4.78
2023-04-21T15:40:28.212Z,4.25
2023-04-21T15:42:55.525Z,3.53
2023-04-21T15:45:22.990Z,3.88
2023-04-21T15:47:50.306Z,5.18
2023-04-21T15:50:17.894Z,4.45
2023-04-21T15:52:45.297Z,3.63
2023-04-21T15:55:12.781Z,3.05
2023-04-21T15:57:40.089Z,3.42
2023-04-21T16:00:10.142Z,3.25
2023-04-21T16:02:38.093Z,4.57
2023-04-21T16:05:06.219Z,4.10
2023-04-21T16:07:33.670Z,4.78
2023-04-21T16:10:01.054Z,5.28
2023-04-21T16:12:28.542Z,5.32
2023-04-21T16:15:01.687Z,4.63
2023-04-21T16:17:36.794Z,3.67
2023-04-21T16:20:05.593Z,4.78
2023-04-21T16:22:32.994Z,4.03
2023-04-21T16:25:00.936Z,5.28
2023-04-21T16:27:28.313Z,5.20
2023-04-21T16:29:55.905Z,4.60
2023-04-21T16:32:23.236Z,5.03
2023-04-21T16:34:50.667Z,3.70
2023-04-21T16:37:18.051Z,4.72
2023-04-21T16:39:46.101Z,4.15
2023-04-21T16:42:13.428Z,4.50
2023-04-21T16:44:46.093Z,5.28
2023-04-21T16:47:13.598Z,5.10
2023-04-21T16:49:42.316Z,5.93
2023-04-21T16:52:17.360Z,4.30
2023-04-21T16:54:44.917Z,5.18
2023-04-21T16:57:12.646Z,5.40
2023-04-21T16:59:40.690Z,5.82
2023-04-21T17:02:08.074Z,5.82
2023-04-21T17:04:37.671Z,7.47
2023-04-21T17:07:06.271Z,6.65
2023-04-21T17:09:33.698Z,6.28
2023-04-21T17:12:01.240Z,8.02
2023-04-21T17:14:28.898Z,7.78
2023-04-21T17:16:56.446Z,8.65
2023-04-21T17:19:24.370Z,9.07
2023-04-21T17:21:51.601Z,4.78
2023-04-21T17:24:19.068Z,6.70
2023-04-21T17:26:46.740Z,7.60
2023-04-21T17:29:14.228Z,5.97
2023-04-21T17:31:41.517Z,7.95
2023-04-21T17:34:08.851Z,8.55
2023-04-21T17:36:36.297Z,6.43
2023-04-21T17:39:03.591Z,6.03
2023-04-21T17:41:31.046Z,6.35
2023-04-21T17:43:58.712Z,4.63
2023-04-21T17:46:26.381Z,9.52
2023-04-21T17:48:54.053Z,6.38
2023-04-21T17:51:21.393Z,7.78
2023-04-21T17:53:48.665Z,5.03
2023-04-21T17:56:16.081Z,4.43
2023-04-21T17:58:43.418Z,5.15
2023-04-21T18:01:10.912Z,5.25
2023-04-21T18:03:41.317Z,12.52
2023-04-21T18:06:11.243Z,8.07
2023-04-21T18:08:38.627Z,6.95
2023-04-21T18:11:06.266Z,6.63
2023-04-21T18:13:34.033Z,4.93
2023-04-21T18:16:01.772Z,5.45
2023-04-21T18:18:29.177Z,7.18
2023-04-21T18:20:56.461Z,3.75
2023-04-21T18:23:24.026Z,6.30
2023-04-21T18:25:51.568Z,4.85
2023-04-21T18:28:18.874Z,4.57
2023-04-21T18:30:46.849Z,5.00
2023-04-21T18:33:14.123Z,6.82
2023-04-21T18:35:42.197Z,4.88
2023-04-21T18:38:11.497Z,6.47
2023-04-21T18:40:40.401Z,5.03
2023-04-21T18:43:09.662Z,6.70
2023-04-21T18:45:37.476Z,6.45
2023-04-21T18:48:05.522Z,7.25
2023-04-21T18:50:35.222Z,4.13
2023-04-21T18:53:04.088Z,3.92
2023-04-21T18:55:36.122Z,5.90
2023-04-21T18:58:03.886Z,3.05
2023-04-21T19:00:32.291Z,5.32
2023-04-21T19:03:01.054Z,8.73
2023-04-21T19:05:31.091Z,3.50
2023-04-21T19:07:58.987Z,2.38
2023-04-21T19:10:27.007Z,2.97
2023-04-21T19:12:54.724Z,2.63
2023-04-21T19:15:22.619Z,4.72
2023-04-21T19:17:49.849Z,3.63
2023-04-21T19:20:18.228Z,4.47
2023-04-21T19:22:45.760Z,2.67
2023-04-21T19:25:13.018Z,2.15
2023-04-21T19:27:41.388Z,4.47
2023-04-21T19:30:09.408Z,4.45
2023-04-21T19:32:36.767Z,2.22
2023-04-21T19:35:04.243Z,2.00
2023-04-21T19:37:33.602Z,2.05
2023-04-21T19:40:03.187Z,1.85
2023-04-21T19:42:30.590Z,2.03
2023-04-21T19:44:57.893Z,1.80
2023-04-21T19:47:25.196Z,3.45
2023-04-21T19:49:52.508Z,2.78
2023-04-21T19:52:19.827Z,4.68
2023-04-21T19:54:47.068Z,3.28
2023-04-21T19:57:14.433Z,5.15
2023-04-21T19:59:41.731Z,3.35
2023-04-21T20:02:09.595Z,4.07
2023-04-21T20:04:37.515Z,3.95
2023-04-21T20:07:05.111Z,3.55
2023-04-21T20:09:32.418Z,5.97
2023-04-21T20:11:59.644Z,8.25
2023-04-21T20:14:27.154Z,4.82
2023-04-21T20:16:54.381Z,3.78
2023-04-21T20:19:23.044Z,4.38
2023-04-21T20:21:50.308Z,3.85
2023-04-21T20:24:17.532Z,3.75
2023-04-21T20:26:45.946Z,4.93
2023-04-21T20:29:13.236Z,4.32
2023-04-21T20:31:41.226Z,4.60
2023-04-21T20:34:08.684Z,5.53
2023-04-21T20:36:36.941Z,4.78
2023-04-21T20:39:07.288Z,4.72
2023-04-21T20:41:34.507Z,4.28
2023-04-21T20:44:01.710Z,4.18
2023-04-21T20:46:29.915Z,4.13
2023-04-21T20:48:57.157Z,4.47
2023-04-21T20:51:24.651Z,5.50
2023-04-21T20:53:51.876Z,5.80
2023-04-21T20:56:19.346Z,4.10
2023-04-21T20:58:47.836Z,4.80
2023-04-21T21:01:15.073Z,4.68
2023-04-21T21:03:42.420Z,4.90
2023-04-21T21:06:10.529Z,5.47
2023-04-21T21:08:37.820Z,6.65
2023-04-21T21:11:06.313Z,5.15
2023-04-21T21:13:33.617Z,6.55
2023-04-21T21:16:00.796Z,6.30
2023-04-21T21:18:28.528Z,5.60
2023-04-21T21:20:55.919Z,7.10
2023-04-21T21:23:23.175Z,6.25
2023-04-21T21:25:50.837Z,6.82
2023-04-21T21:28:18.981Z,7.07
2023-04-21T21:30:46.273Z,6.07
2023-04-21T21:33:13.690Z,10.90
2023-04-21T21:35:41.841Z,8.60
2023-04-21T21:38:09.320Z,8.15
2023-04-21T21:40:36.699Z,8.68
2023-04-21T21:43:04.006Z,7.07
2023-04-21T21:45:31.478Z,7.60
2023-04-21T21:47:58.781Z,7.25
2023-04-21T21:50:26.696Z,6.45
2023-04-21T21:52:53.991Z,9.40
2023-04-21T21:55:21.320Z,7.55
2023-04-21T21:57:48.567Z,7.88
2023-04-21T22:00:16.108Z,7.15
2023-04-21T22:02:43.595Z,7.65
2023-04-21T22:05:11.639Z,8.25
2023-04-21T22:07:43.042Z,6.32
2023-04-21T22:10:11.387Z,4.65
2023-04-21T22:12:38.981Z,4.53
2023-04-21T22:15:06.875Z,5.40
2023-04-21T22:17:37.937Z,11.88
2023-04-21T22:20:08.230Z,6.88
2023-04-21T22:22:35.903Z,6.72
2023-04-21T22:25:03.417Z,7.57
2023-04-21T22:27:33.193Z,6.78
2023-04-21T22:30:03.547Z,5.03
2023-04-21T22:32:32.200Z,7.82
2023-04-21T22:35:00.017Z,6.72
2023-04-21T22:37:27.922Z,8.57
2023-04-21T22:39:57.499Z,6.32
2023-04-21T22:42:24.973Z,7.32
2023-04-21T22:44:52.421Z,4.85
2023-04-21T22:47:20.481Z,6.05
2023-04-21T22:49:47.784Z,6.43
2023-04-21T22:52:15.057Z,7.30
2023-04-21T22:54:42.409Z,5.60
2023-04-21T22:57:09.718Z,6.80
2023-04-21T22:59:37.143Z,7.15
2023-04-21T23:02:05.685Z,9.68
2023-04-21T23:04:33.102Z,7.90
2023-04-21T23:07:00.396Z,7.28
2023-04-21T23:09:27.653Z,10.90
2023-04-21T23:11:54.955Z,6.63
2023-04-21T23:14:22.216Z,7.28
2023-04-21T23:16:49.487Z,9.70
2023-04-21T23:19:16.919Z,8.27
2023-04-21T23:21:44.423Z,7.75
2023-04-21T23:24:11.679Z,9.70
2023-04-21T23:26:38.991Z,8.85
2023-04-21T23:29:06.295Z,8.75
2023-04-21T23:31:33.569Z,8.18
2023-04-21T23:34:01.000Z,10.82
2023-04-21T23:36:28.257Z,13.63
2023-04-21T23:38:55.999Z,10.15
2023-04-21T23:41:23.428Z,10.18
2023-04-21T23:43:50.627Z,11.52
2023-04-21T23:46:17.898Z,8.82
2023-04-21T23:48:45.321Z,9.10
2023-04-21T23:51:12.809Z,14.95
2023-04-21T23:53:40.337Z,12.98
2023-04-21T23:56:07.664Z,13.90
2023-04-21T23:58:34.870Z,12.95
